Time;durP1;ratioP1;P1;durP2;ratioP2;P2;SDS_P1;SDS_P2;PMS_P1;PMS_P2;Temp;Humidity;BMP_temperature;BMP_pressure;BME280_temperature;BME280_humidity;BME280_pressure;Samples;Min_cycle;Max_cycle;Signal;HPM_P1;HPM_P2
2022/08/28 00:00:00;;;;;;;;;;;;;;;20.15;70.87;100436.13;4848745;28;98069;-68
2022/08/28 00:02:53;;;;;;;;;;;;;;;20.15;70.88;100430.66;4850878;28;99923;-68
2022/08/28 00:05:48;;;;;;;;;;;;;;;20.15;70.97;100438.88;4846934;28;99081;-68
2022/08/28 00:08:41;;;;;;;;;;;;;;;20.16;70.94;100440.47;4836793;28;97904;-68
2022/08/28 00:11:36;;;;;;;;;;;;;;;20.17;70.87;100436.63;4845892;28;98242;-60
2022/08/28 00:14:29;;;;;;;;;;;;;;;20.18;70.96;100440.94;4839011;28;97918;-60
2022/08/28 00:17:22;;;;;;;;;;;;;;;20.18;70.90;100444.47;4856540;28;98589;-60
2022/08/28 00:20:16;;;;;;;;;;;;;;;20.16;71.09;100441.28;4849537;28;97988;-60
2022/08/28 00:23:11;;;;;;;;;;;;;;;20.14;70.95;100435.34;4849325;28;99260;-68
2022/08/28 00:26:04;;;;;;;;;;;;;;;20.15;71.05;100447.06;4853369;28;99223;-60
2022/08/28 00:28:57;;;;;;;;;;;;;;;20.16;71.07;100448.66;4836625;28;97951;-67
2022/08/28 00:31:50;;;;;;;;;;;;;;;20.16;71.08;100445.94;4855017;28;99205;-68
2022/08/28 00:34:42;;;;;;;;;;;;;;;20.16;71.13;100451.41;4868983;28;98710;-68
2022/08/28 00:37:35;;;;;;;;;;;;;;;20.18;71.11;100446.41;4847323;28;98031;-68
2022/08/28 00:40:33;;;;;;;;;;;;;;;20.17;71.01;100442.09;4831472;28;97892;-60
2022/08/28 00:43:37;;;;;;;;;;;;;;;20.17;71.21;100444.81;4847534;28;98421;-67
2022/08/28 00:50:04;;;;;;;;;;;;;;;20.17;71.15;100445.63;4851985;28;98123;-60
2022/08/28 00:53:10;;;;;;;;;;;;;;;20.14;71.04;100443.53;4849651;28;98117;-60
2022/08/28 00:56:06;;;;;;;;;;;;;;;20.15;71.12;100449.81;4844653;28;99019;-60
2022/08/28 00:59:01;;;;;;;;;;;;;;;20.13;70.98;100447.41;4848017;28;99125;-68
2022/08/28 01:01:56;;;;;;;;;;;;;;;20.13;71.26;100447.41;4841939;28;98186;-68
2022/08/28 01:04:49;;;;;;;;;;;;;;;20.11;71.11;100449.66;4850409;28;99504;-60
2022/08/28 01:07:56;;;;;;;;;;;;;;;20.09;71.16;100452.75;4866911;28;98116;-67
2022/08/28 01:10:49;;;;;;;;;;;;;;;20.07;71.26;100454.19;4860332;28;97913;-67
2022/08/28 01:13:45;;;;;;;;;;;;;;;20.04;71.41;100447.47;4846722;28;98435;-66
2022/08/28 01:16:38;;;;;;;;;;;;;;;20.01;71.28;100450.06;4847437;28;98389;-60
2022/08/28 01:20:08;;;;;;;;;;;;;;;19.98;71.26;100451.53;4838700;28;98256;-67
2022/08/28 01:23:07;;;;;;;;;;;;;;;19.97;71.34;100455.41;4861860;28;99820;-62
2022/08/28 01:26:00;;;;;;;;;;;;;;;19.97;71.44;100452.66;4849622;28;99583;-68
2022/08/28 01:28:53;;;;;;;;;;;;;;;19.97;71.21;100455.41;4860428;28;98339;-60
2022/08/28 01:31:49;;;;;;;;;;;;;;;19.99;71.38;100447.66;4847095;28;98262;-60
2022/08/28 01:34:52;;;;;;;;;;;;;;;19.99;71.35;100455.84;4863203;28;98900;-61
2022/08/28 01:37:55;;;;;;;;;;;;;;;19.98;71.16;100459.72;4845949;28;98290;-60
2022/08/28 01:41:19;;;;;;;;;;;;;;;19.99;71.37;100466.00;4891680;23;98322;-60
2022/08/28 01:44:18;;;;;;;;;;;;;;;19.97;71.20;100466.34;4920036;28;98763;-67
2022/08/28 01:47:15;;;;;;;;;;;;;;;19.97;71.26;100463.59;4932961;28;98868;-67
2022/08/28 01:50:08;;;;;;;;;;;;;;;19.95;71.19;100468.59;4907019;28;98003;-67
2022/08/28 01:53:01;;;;;;;;;;;;;;;19.94;71.10;100468.94;4904882;28;98261;-60
2022/08/28 01:56:20;;;;;;;;;;;;;;;19.93;71.02;100470.88;4918610;28;98323;-60
2022/08/28 01:59:06;;;;;;;;;;;;;;;19.92;70.94;100473.91;4918869;28;98661;-68
2022/08/28 02:02:10;;;;;;;;;;;;;;;19.90;71.10;100473.47;4893141;28;116629;-60
2022/08/28 02:05:15;;;;;;;;;;;;;;;19.88;70.98;100478.44;4905337;28;98223;-60
2022/08/28 02:08:08;;;;;;;;;;;;;;;19.84;71.01;100487.31;4900972;28;98403;-60
2022/08/28 02:11:05;;;;;;;;;;;;;;;19.82;71.10;100484.09;4907618;28;98125;-68
2022/08/28 02:14:19;;;;;;;;;;;;;;;19.80;70.94;100491.81;4921347;28;98343;-61
2022/08/28 02:17:23;;;;;;;;;;;;;;;19.78;71.01;100493.31;4908547;28;98588;-68
2022/08/28 02:20:17;;;;;;;;;;;;;;;19.76;71.08;100488.16;4907225;28;98321;-60
2022/08/28 02:23:11;;;;;;;;;;;;;;;19.74;71.01;100489.63;4929071;28;98882;-60
2022/08/28 02:29:38;;;;;;;;;;;;;;;19.69;70.98;100489.78;4918564;28;98244;-68
2022/08/28 02:32:31;;;;;;;;;;;;;;;19.67;71.06;100483.84;4916697;28;97922;-67
2022/08/28 02:35:27;;;;;;;;;;;;;;;19.67;70.95;100483.84;4927382;28;97846;-67
2022/08/28 02:38:32;;;;;;;;;;;;;;;19.65;71.10;100486.94;4925348;28;97857;-60
2022/08/28 02:41:33;;;;;;;;;;;;;;;19.64;70.98;100489.97;4919277;28;97863;-60
2022/08/28 02:44:27;;;;;;;;;;;;;;;19.60;71.01;100487.06;4916515;28;98221;-68
2022/08/28 02:47:20;;;;;;;;;;;;;;;19.54;71.05;100485.66;4906340;28;98103;-68
2022/08/28 02:50:14;;;;;;;;;;;;;;;19.49;71.05;100483.91;4907893;28;97871;-60
2022/08/28 02:53:07;;;;;;;;;;;;;;;19.48;71.17;100486.94;4917851;28;99508;-68
2022/08/28 02:56:03;;;;;;;;;;;;;;;19.45;71.21;100496.59;4913406;28;98273;-68
2022/08/28 02:58:57;;;;;;;;;;;;;;;19.42;71.46;100493.72;4925529;28;98967;-68
2022/08/28 03:01:49;;;;;;;;;;;;;;;19.40;71.39;100491.31;4900601;28;99745;-68
2022/08/28 03:04:43;;;;;;;;;;;;;;;19.38;71.37;100490.84;4920598;28;98409;-60
2022/08/28 03:07:36;;;;;;;;;;;;;;;19.39;71.27;100495.16;4923900;28;97990;-68
2022/08/28 03:10:42;;;;;;;;;;;;;;;19.36;71.22;100499.34;4906392;28;98496;-60
2022/08/28 03:13:49;;;;;;;;;;;;;;;19.35;71.46;100495.00;4914452;28;98595;-68
2022/08/28 03:16:42;;;;;;;;;;;;;;;19.36;71.42;100499.34;4890584;28;99611;-67
2022/08/28 03:19:36;;;;;;;;;;;;;;;19.34;71.29;100501.63;4900343;28;98285;-60
2022/08/28 03:25:45;;;;;;;;;;;;;;;19.32;71.41;100503.06;4887219;28;98841;-60
2022/08/28 03:28:50;;;;;;;;;;;;;;;19.32;71.54;100503.06;4902681;28;98195;-60
2022/08/28 03:31:44;;;;;;;;;;;;;;;19.30;71.51;100497.13;4929799;28;98323;-68
2022/08/28 03:34:39;;;;;;;;;;;;;;;19.29;71.59;100503.69;4918835;28;98624;-67
2022/08/28 03:37:34;;;;;;;;;;;;;;;19.27;71.47;100498.56;4907274;28;98505;-60
2022/08/28 03:40:39;;;;;;;;;;;;;;;19.27;71.60;100505.97;4911871;28;97778;-67
2022/08/28 03:43:44;;;;;;;;;;;;;;;19.26;71.44;100502.44;4906123;28;98410;-60
2022/08/28 03:46:50;;;;;;;;;;;;;;;19.26;71.56;100501.63;4909763;28;97965;-61
2022/08/28 03:49:46;;;;;;;;;;;;;;;19.24;71.70;100504.69;4905375;28;99557;-60
2022/08/28 03:52:41;;;;;;;;;;;;;;;19.25;71.56;100502.75;4914205;28;97974;-60
2022/08/28 03:55:35;;;;;;;;;;;;;;;19.23;71.66;100503.06;4920721;28;98046;-66
2022/08/28 03:58:40;;;;;;;;;;;;;;;19.22;71.63;100503.41;4917460;28;101150;-68
2022/08/28 04:01:33;;;;;;;;;;;;;;;19.20;71.61;100506.44;4918211;28;98729;-67
2022/08/28 04:04:35;;;;;;;;;;;;;;;19.17;71.64;100507.09;4919482;28;98174;-61
2022/08/28 04:07:39;;;;;;;;;;;;;;;19.14;71.54;100513.22;4918307;28;98086;-68
2022/08/28 04:10:35;;;;;;;;;;;;;;;19.13;71.58;100511.59;4928867;28;100100;-68
2022/08/28 04:13:28;;;;;;;;;;;;;;;19.13;71.73;100525.25;4912325;28;99589;-68
2022/08/28 04:16:38;;;;;;;;;;;;;;;19.12;71.48;100524.47;4916846;28;99221;-68
2022/08/28 04:19:44;;;;;;;;;;;;;;;19.11;71.63;100528.31;4904951;28;97900;-60
2022/08/28 04:22:37;;;;;;;;;;;;;;;19.10;71.48;100528.66;4922726;28;97962;-68
2022/08/28 04:25:29;;;;;;;;;;;;;;;19.08;71.73;100528.97;4919536;28;99311;-60
2022/08/28 04:28:22;;;;;;;;;;;;;;;19.07;71.85;100538.28;4930700;28;98101;-61
2022/08/28 04:34:51;;;;;;;;;;;;;;;19.04;71.43;100543.59;4908437;28;98046;-68
2022/08/28 04:37:53;;;;;;;;;;;;;;;19.02;71.62;100545.84;4914065;28;98132;-68
2022/08/28 04:40:48;;;;;;;;;;;;;;;19.00;71.58;100545.38;4928889;28;98860;-60
2022/08/28 04:43:42;;;;;;;;;;;;;;;18.98;71.44;100542.97;4892953;28;98441;-60
2022/08/28 04:46:34;;;;;;;;;;;;;;;18.98;71.55;100545.69;4894914;28;98462;-68
2022/08/28 04:49:27;;;;;;;;;;;;;;;18.97;71.26;100549.53;4902744;28;98493;-68
2022/08/28 04:52:32;;;;;;;;;;;;;;;18.97;71.50;100546.81;4917379;28;97971;-68
2022/08/28 04:55:25;;;;;;;;;;;;;;;18.97;71.33;100555.00;4898785;28;97963;-61
2022/08/28 04:58:18;;;;;;;;;;;;;;;18.94;71.44;100552.91;4911462;28;100353;-68
2022/08/28 05:01:23;;;;;;;;;;;;;;;18.94;71.44;100552.09;4914677;28;98458;-60
2022/08/28 05:04:44;;;;;;;;;;;;;;;18.92;71.27;100552.44;4897259;28;98399;-68
2022/08/28 05:07:37;;;;;;;;;;;;;;;18.92;71.06;100559.81;4881815;28;98601;-68
2022/08/28 05:10:42;;;;;;;;;;;;;;;18.89;71.10;100558.53;4914100;28;98051;-68
2022/08/28 05:13:39;;;;;;;;;;;;;;;18.87;71.01;100569.00;4904203;28;99489;-60
2022/08/28 05:16:44;;;;;;;;;;;;;;;18.83;70.98;100563.34;4876682;28;98177;-60
2022/08/28 05:19:36;;;;;;;;;;;;;;;18.83;71.14;100573.47;4907564;28;98536;-60
2022/08/28 05:22:29;;;;;;;;;;;;;;;18.80;71.02;100572.19;4913560;28;98284;-60
2022/08/28 05:25:34;;;;;;;;;;;;;;;18.77;71.00;100572.00;4889204;28;98462;-68
2022/08/28 05:28:26;;;;;;;;;;;;;;;18.73;70.64;100587.44;4926369;28;98107;-61
2022/08/28 05:31:41;;;;;;;;;;;;;;;18.70;70.66;100585.31;4925303;28;99217;-61
2022/08/28 05:34:35;;;;;;;;;;;;;;;18.65;70.78;100592.53;4893100;28;99009;-60
2022/08/28 05:37:29;;;;;;;;;;;;;;;18.62;70.78;100601.34;4896490;28;98323;-60
2022/08/28 05:40:27;;;;;;;;;;;;;;;18.60;70.68;100600.88;4898340;28;99845;-60
2022/08/28 05:43:24;;;;;;;;;;;;;;;18.59;70.63;100603.94;4909291;28;98738;-61
2022/08/28 05:46:36;;;;;;;;;;;;;;;18.54;70.53;100602.13;4913108;28;98605;-60
2022/08/28 05:49:29;;;;;;;;;;;;;;;18.54;70.60;100607.59;4905249;28;98342;-61
2022/08/28 05:52:38;;;;;;;;;;;;;;;18.55;70.48;100608.38;4916832;28;99425;-68
2022/08/28 05:55:34;;;;;;;;;;;;;;;18.55;70.34;100611.13;4903988;28;98734;-60
2022/08/28 05:58:39;;;;;;;;;;;;;;;18.57;70.32;100617.06;4903996;28;98657;-60
2022/08/28 06:01:53;;;;;;;;;;;;;;;18.58;70.21;100618.66;4902470;28;98605;-62
2022/08/28 06:04:49;;;;;;;;;;;;;;;18.58;69.97;100618.66;4907046;28;98773;-62
2022/08/28 06:07:42;;;;;;;;;;;;;;;18.59;70.16;100625.75;4926389;28;98718;-61
2022/08/28 06:10:36;;;;;;;;;;;;;;;18.60;69.91;100632.81;4902523;28;98411;-61
2022/08/28 06:13:30;;;;;;;;;;;;;;;18.64;69.86;100637.31;4923084;28;98508;-60
2022/08/28 06:16:27;;;;;;;;;;;;;;;18.69;69.80;100643.75;4903747;28;98241;-61
2022/08/28 06:19:36;;;;;;;;;;;;;;;18.73;69.51;100647.50;4912633;28;98755;-60
2022/08/28 06:22:28;;;;;;;;;;;;;;;18.79;69.25;100638.84;4897790;28;98199;-61
2022/08/28 06:25:31;;;;;;;;;;;;;;;18.87;69.17;100638.06;4905122;28;98433;-68
2022/08/28 06:28:25;;;;;;;;;;;;;;;18.96;69.01;100637.25;4901674;28;99410;-61
2022/08/28 06:31:20;;;;;;;;;;;;;;;19.04;69.06;100640.00;4901754;28;98595;-61
2022/08/28 06:34:19;;;;;;;;;;;;;;;19.08;68.76;100642.91;4892054;28;98297;-61
2022/08/28 06:37:16;;;;;;;;;;;;;;;19.09;68.93;100656.22;4932216;28;99181;-61
2022/08/28 06:40:12;;;;;;;;;;;;;;;19.08;68.63;100646.44;4902419;28;98350;-60
2022/08/28 06:43:06;;;;;;;;;;;;;;;19.09;68.80;100656.22;4907718;28;98937;-61
2022/08/28 06:46:00;;;;;;;;;;;;;;;19.11;68.57;100653.19;4914039;28;98508;-60
2022/08/28 06:48:53;;;;;;;;;;;;;;;19.17;68.49;100648.34;4892762;28;98242;-61
2022/08/28 06:51:46;;;;;;;;;;;;;;;19.20;68.31;100653.19;4910260;28;98019;-60
2022/08/28 06:54:40;;;;;;;;;;;;;;;19.26;68.11;100663.66;4899041;28;99574;-60
2022/08/28 06:57:33;;;;;;;;;;;;;;;19.29;67.96;100659.44;4897652;28;98266;-60
2022/08/28 07:00:27;;;;;;;;;;;;;;;19.35;67.84;100655.44;4908838;28;99914;-60
2022/08/28 07:03:21;;;;;;;;;;;;;;;19.35;67.77;100658.19;4903170;28;98963;-61
2022/08/28 07:06:14;;;;;;;;;;;;;;;19.33;67.71;100665.88;4898022;28;97897;-61
2022/08/28 07:09:07;;;;;;;;;;;;;;;19.31;67.77;100666.22;4891590;28;97870;-61
2022/08/28 07:12:01;;;;;;;;;;;;;;;19.31;67.81;100673.63;4913000;28;98683;-61
2022/08/28 07:14:54;;;;;;;;;;;;;;;19.28;67.72;100676.97;4896521;28;99244;-61
2022/08/28 07:17:48;;;;;;;;;;;;;;;19.32;67.63;100680.69;4916827;28;98548;-61
2022/08/28 07:20:45;;;;;;;;;;;;;;;19.44;67.33;100677.31;4911495;28;98130;-60
2022/08/28 07:23:40;;;;;;;;;;;;;;;19.64;66.98;100679.41;4912609;28;98206;-68
2022/08/28 07:26:35;;;;;;;;;;;;;;;19.81;66.56;100676.69;4924331;28;98259;-68
2022/08/28 07:29:30;;;;;;;;;;;;;;;19.95;66.26;100679.22;4897622;28;98145;-60
2022/08/28 07:32:25;;;;;;;;;;;;;;;20.09;65.92;100676.28;4903038;28;99901;-68
2022/08/28 07:35:18;;;;;;;;;;;;;;;20.21;65.65;100683.81;4906396;28;99713;-68
2022/08/28 07:38:11;;;;;;;;;;;;;;;20.22;65.46;100679.97;4900852;28;99055;-68
2022/08/28 07:41:04;;;;;;;;;;;;;;;20.29;65.29;100677.53;4894782;28;98360;-68
2022/08/28 07:47:11;;;;;;;;;;;;;;;20.65;64.56;100688.03;4913198;28;98352;-61
2022/08/28 07:50:04;;;;;;;;;;;;;;;20.97;64.10;100685.75;4902077;28;97989;-61
2022/08/28 07:52:58;;;;;;;;;;;;;;;21.20;63.63;100684.31;4905302;28;99135;-60
2022/08/28 07:55:52;;;;;;;;;;;;;;;21.44;63.41;100689.16;4892604;28;98078;-61
2022/08/28 07:58:44;;;;;;;;;;;;;;;21.66;62.86;100695.44;4917314;28;97945;-61
2022/08/28 08:01:37;;;;;;;;;;;;;;;21.76;62.77;100701.28;4917522;28;98948;-61
2022/08/28 08:04:31;;;;;;;;;;;;;;;21.86;62.72;100704.78;4902948;28;98978;-61
2022/08/28 08:07:25;;;;;;;;;;;;;;;21.91;62.35;100702.59;4896495;28;98918;-60
2022/08/28 08:10:17;;;;;;;;;;;;;;;21.97;62.47;100712.25;4919141;28;98966;-60
2022/08/28 08:13:11;;;;;;;;;;;;;;;22.11;62.13;100709.19;4903031;28;99185;-61
2022/08/28 08:16:08;;;;;;;;;;;;;;;22.26;61.69;100708.56;4900923;28;98877;-61
2022/08/28 08:19:03;;;;;;;;;;;;;;;22.48;61.49;100718.34;4912560;28;98128;-61
2022/08/28 08:21:59;;;;;;;;;;;;;;;22.55;61.48;100713.06;4896332;28;98377;-60
2022/08/28 08:24:53;;;;;;;;;;;;;;;22.51;61.56;100717.63;4919785;28;99456;-61
2022/08/28 08:27:47;;;;;;;;;;;;;;;22.47;61.36;100715.91;4898009;28;98100;-61
2022/08/28 08:30:40;;;;;;;;;;;;;;;23.11;59.85;100706.19;4911096;28;98327;-61
2022/08/28 08:33:33;;;;;;;;;;;;;;;23.96;58.64;100713.41;4909078;28;98528;-61
2022/08/28 08:36:27;;;;;;;;;;;;;;;24.54;57.78;100719.28;4910853;28;98033;-61
2022/08/28 08:39:21;;;;;;;;;;;;;;;24.96;56.66;100721.47;4903997;28;98439;-61
2022/08/28 08:42:20;;;;;;;;;;;;;;;25.58;55.53;100722.44;4904510;28;98399;-61
2022/08/28 08:45:14;;;;;;;;;;;;;;;26.90;53.67;100721.31;4920554;28;98941;-61
2022/08/28 08:48:16;;;;;;;;;;;;;;;28.20;51.63;100722.59;4896704;28;98877;-61
2022/08/28 08:51:11;;;;;;;;;;;;;;;28.75;50.76;100728.25;4903170;28;98559;-61
2022/08/28 08:54:28;;;;;;;;;;;;;;;28.40;50.80;100725.19;4909051;28;98587;-61
2022/08/28 08:57:21;;;;;;;;;;;;;;;28.87;49.54;100722.38;4896930;28;98435;-61
2022/08/28 09:00:14;;;;;;;;;;;;;;;29.62;47.44;100724.03;4916599;28;98002;-61
2022/08/28 09:03:07;;;;;;;;;;;;;;;31.10;45.71;100721.81;4896538;28;97967;-61
2022/08/28 09:06:18;;;;;;;;;;;;;;;31.50;44.86;100720.50;4895406;28;98137;-61
2022/08/28 09:09:14;;;;;;;;;;;;;;;30.93;46.02;100717.88;4900777;28;98695;-61
2022/08/28 09:12:09;;;;;;;;;;;;;;;31.20;45.35;100723.75;4895395;28;99040;-61
2022/08/28 09:15:43;;;;;;;;;;;;;;;30.87;44.14;100725.03;4898762;28;98510;-61
2022/08/28 09:18:47;;;;;;;;;;;;;;;33.27;41.60;100720.78;4884633;28;99399;-61
2022/08/28 09:21:42;;;;;;;;;;;;;;;32.26;41.23;100723.66;4889059;28;98158;-61
2022/08/28 09:24:36;;;;;;;;;;;;;;;32.11;41.71;100714.63;4918998;28;98205;-61
2022/08/28 09:27:51;;;;;;;;;;;;;;;32.75;40.50;100716.91;4896889;28;98554;-61
2022/08/28 09:31:00;;;;;;;;;;;;;;;33.70;39.62;100723.88;4915360;28;98337;-61
2022/08/28 09:34:02;;;;;;;;;;;;;;;34.26;37.76;100717.88;4879665;28;98402;-61
2022/08/28 09:36:55;;;;;;;;;;;;;;;33.60;39.30;100717.22;4893117;28;98665;-68
2022/08/28 09:39:57;;;;;;;;;;;;;;;35.11;37.38;100721.25;4896280;28;98895;-69
2022/08/28 09:46:11;;;;;;;;;;;;;;;36.59;36.11;100715.56;4905330;28;97820;-61
2022/08/28 09:49:16;;;;;;;;;;;;;;;36.64;35.59;100708.63;4900915;28;98902;-61
2022/08/28 09:52:09;;;;;;;;;;;;;;;38.10;34.12;100703.63;4919647;28;98140;-61
2022/08/28 09:55:04;;;;;;;;;;;;;;;38.57;32.88;100714.16;4893490;28;98069;-61
2022/08/28 09:57:59;;;;;;;;;;;;;;;38.23;33.20;100704.38;4897994;28;99507;-61
2022/08/28 10:00:55;;;;;;;;;;;;;;;38.08;33.12;100703.28;4918798;28;98653;-61
2022/08/28 10:03:59;;;;;;;;;;;;;;;37.73;33.36;100700.34;4901779;28;98283;-69
2022/08/28 10:06:54;;;;;;;;;;;;;;;37.98;32.97;100699.59;4900675;28;98303;-69
2022/08/28 10:10:24;;;;;;;;;;;;;;;38.18;32.46;100698.56;4903648;28;98340;-69
2022/08/28 10:13:44;;;;;;;;;;;;;;;36.61;33.90;100696.25;4887707;28;98311;-69
2022/08/28 10:16:55;;;;;;;;;;;;;;;37.17;33.33;100700.78;4898154;28;98657;-70
2022/08/28 10:20:01;;;;;;;;;;;;;;;36.47;33.82;100696.66;4885346;28;98527;-69
2022/08/28 10:23:53;;;;;;;;;;;;;;;35.30;35.09;100686.84;4896830;28;97993;-69
2022/08/28 10:27:30;;;;;;;;;;;;;;;33.74;36.41;100688.28;4815304;28;98429;-69
2022/08/28 10:30:47;;;;;;;;;;;;;;;33.87;36.32;100694.88;4794014;28;98326;-61
2022/08/28 10:33:49;;;;;;;;;;;;;;;33.45;37.08;100701.84;4865257;28;98046;-62
2022/08/28 10:36:51;;;;;;;;;;;;;;;33.75;36.64;100695.44;4892163;28;98356;-70
2022/08/28 10:39:51;;;;;;;;;;;;;;;33.96;36.44;100699.97;4893233;28;98332;-61
2022/08/28 10:43:08;;;;;;;;;;;;;;;36.28;33.42;100705.91;4876843;28;99245;-70
2022/08/28 10:46:01;;;;;;;;;;;;;;;37.46;33.00;100708.41;4881790;28;98133;-62
2022/08/28 10:49:03;;;;;;;;;;;;;;;36.29;33.46;100713.88;4895468;28;98127;-69
2022/08/28 10:52:07;;;;;;;;;;;;;;;37.04;32.43;100705.56;4891772;28;98151;-62
2022/08/28 10:55:26;;;;;;;;;;;;;;;38.02;31.34;100702.28;4896658;28;98068;-62
2022/08/28 10:58:29;;;;;;;;;;;;;;;35.75;33.14;100705.13;4897105;28;98977;-69
2022/08/28 11:01:56;;;;;;;;;;;;;;;34.96;33.91;100698.28;4908069;28;98152;-69
2022/08/28 11:04:49;;;;;;;;;;;;;;;35.32;33.59;100706.00;4884940;28;98223;-69
2022/08/28 11:07:45;;;;;;;;;;;;;;;34.92;33.87;100703.97;4896264;28;98045;-61
2022/08/28 11:11:16;;;;;;;;;;;;;;;33.80;35.39;100700.59;4887340;28;98196;-69
2022/08/28 11:14:38;;;;;;;;;;;;;;;32.75;36.03;100702.97;4887808;28;98263;-61
2022/08/28 11:17:50;;;;;;;;;;;;;;;34.58;33.91;100704.19;4908463;28;98276;-69
2022/08/28 11:20:45;;;;;;;;;;;;;;;34.20;34.53;100707.19;4882390;28;98310;-64
2022/08/28 11:23:56;;;;;;;;;;;;;;;34.90;33.85;100702.84;4878443;28;98217;-69
2022/08/28 11:27:06;;;;;;;;;;;;;;;34.09;35.20;100700.97;4893505;28;99793;-61
2022/08/28 11:30:30;;;;;;;;;;;;;;;33.84;35.15;100706.09;4890107;28;98484;-61
2022/08/28 11:33:23;;;;;;;;;;;;;;;35.57;33.33;100716.75;4884825;28;98391;-69
2022/08/28 11:36:28;;;;;;;;;;;;;;;36.34;32.38;100712.56;4893887;28;98146;-62
2022/08/28 11:39:21;;;;;;;;;;;;;;;37.19;31.97;100711.59;4880220;28;99591;-69
2022/08/28 11:42:33;;;;;;;;;;;;;;;37.28;31.12;100712.50;4893009;28;98058;-62
2022/08/28 11:45:28;;;;;;;;;;;;;;;38.01;30.89;100707.13;4896406;28;98233;-69
2022/08/28 11:48:21;;;;;;;;;;;;;;;36.11;32.27;100713.53;4884714;28;98391;-70
2022/08/28 11:51:15;;;;;;;;;;;;;;;35.49;33.00;100704.91;4881684;28;97998;-62
2022/08/28 11:54:51;;;;;;;;;;;;;;;34.62;33.62;100701.31;4878986;28;99390;-70
2022/08/28 11:58:07;;;;;;;;;;;;;;;34.20;33.90;100703.59;4850627;28;98238;-69
2022/08/28 12:01:34;;;;;;;;;;;;;;;33.84;34.86;100703.31;4826108;28;99771;-62
2022/08/28 12:04:48;;;;;;;;;;;;;;;33.51;34.87;100707.75;4869594;28;97963;-62
2022/08/28 12:07:52;;;;;;;;;;;;;;;32.91;35.17;100702.41;4893192;28;99022;-62
2022/08/28 12:11:11;;;;;;;;;;;;;;;32.01;36.39;100701.56;4898128;28;98122;-70
2022/08/28 12:14:22;;;;;;;;;;;;;;;31.28;37.37;100705.84;4892502;28;98000;-68
2022/08/28 12:17:38;;;;;;;;;;;;;;;31.81;36.69;100698.47;4883400;28;100243;-70
2022/08/28 12:21:05;;;;;;;;;;;;;;;32.69;35.94;100707.41;4871676;28;98170;-62
2022/08/28 12:24:07;;;;;;;;;;;;;;;31.92;36.84;100704.00;4866917;28;98307;-62
2022/08/28 12:27:02;;;;;;;;;;;;;;;31.91;36.67;100694.88;4890186;28;98234;-70
2022/08/28 12:29:56;;;;;;;;;;;;;;;31.49;37.21;100698.63;4907984;28;97976;-70
2022/08/28 12:33:13;;;;;;;;;;;;;;;30.93;38.16;100697.59;4888985;28;97986;-62
2022/08/28 12:36:07;;;;;;;;;;;;;;;30.67;38.45;100694.03;4870072;28;98515;-69
2022/08/28 12:39:18;;;;;;;;;;;;;;;30.17;38.78;100687.69;4897822;28;98514;-62
2022/08/28 12:42:12;;;;;;;;;;;;;;;29.92;39.27;100693.97;4884493;28;98155;-69
2022/08/28 12:45:06;;;;;;;;;;;;;;;29.61;39.52;100701.03;4912397;28;98286;-69
2022/08/28 12:48:00;;;;;;;;;;;;;;;29.26;40.21;100691.31;4899170;28;98503;-69
2022/08/28 12:50:54;;;;;;;;;;;;;;;29.06;40.37;100687.25;4899608;28;98308;-61
2022/08/28 12:53:54;;;;;;;;;;;;;;;28.95;40.74;100698.25;4876065;28;98176;-69
2022/08/28 12:56:56;;;;;;;;;;;;;;;28.81;41.21;100696.22;4889312;28;98067;-69
2022/08/28 12:59:58;;;;;;;;;;;;;;;28.69;41.21;100692.94;4887743;28;98488;-69
2022/08/28 13:03:00;;;;;;;;;;;;;;;28.52;41.35;100692.41;4905629;28;98912;-61
2022/08/28 13:06:03;;;;;;;;;;;;;;;28.48;41.64;100694.34;4892736;28;98209;-69
2022/08/28 13:08:56;;;;;;;;;;;;;;;28.48;41.88;100688.81;4904508;28;98220;-69
2022/08/28 13:12:06;;;;;;;;;;;;;;;28.34;42.11;100692.25;4908438;28;98076;-61
2022/08/28 13:15:16;;;;;;;;;;;;;;;28.02;42.07;100693.91;4908548;28;98475;-62
2022/08/28 13:18:38;;;;;;;;;;;;;;;27.65;42.66;100695.47;4891507;28;98152;-69
2022/08/28 13:22:14;;;;;;;;;;;;;;;27.28;43.23;100697.38;4849354;28;98263;-61
2022/08/28 13:25:08;;;;;;;;;;;;;;;27.00;43.50;100698.56;4837836;28;98001;-69
2022/08/28 13:28:12;;;;;;;;;;;;;;;26.99;43.94;100699.72;4883163;28;98350;-69
2022/08/28 13:31:25;;;;;;;;;;;;;;;26.93;43.91;100698.47;4897196;28;98521;-62
2022/08/28 13:34:39;;;;;;;;;;;;;;;26.80;44.39;100711.69;4889772;28;98138;-61
2022/08/28 13:37:54;;;;;;;;;;;;;;;26.72;44.26;100695.34;4900012;28;98249;-61
2022/08/28 13:41:08;;;;;;;;;;;;;;;26.80;44.22;100697.88;4887915;28;98525;-69
2022/08/28 13:44:18;;;;;;;;;;;;;;;26.73;44.32;100702.50;4898184;28;98815;-61
2022/08/28 13:47:13;;;;;;;;;;;;;;;26.59;44.13;100708.59;4877789;28;97993;-69
2022/08/28 13:50:05;;;;;;;;;;;;;;;26.47;44.49;100704.06;4897376;28;98271;-61
2022/08/28 13:53:08;;;;;;;;;;;;;;;26.44;44.64;100693.69;4893697;28;99597;-61
2022/08/28 13:56:01;;;;;;;;;;;;;;;26.48;44.88;100693.78;4905495;28;98567;-69
2022/08/28 13:58:54;;;;;;;;;;;;;;;26.58;44.93;100699.50;4913560;28;98096;-69
2022/08/28 14:04:49;;;;;;;;;;;;;;;26.71;44.70;100704.81;4906672;28;98202;-69
2022/08/28 14:07:42;;;;;;;;;;;;;;;26.68;44.54;100700.81;4896024;28;99756;-61
2022/08/28 14:10:35;;;;;;;;;;;;;;;26.63;44.78;100706.69;4905532;28;98345;-69
2022/08/28 14:13:28;;;;;;;;;;;;;;;26.56;45.02;100701.81;4911492;28;98427;-61
2022/08/28 14:16:21;;;;;;;;;;;;;;;26.48;45.00;100710.38;4897077;28;99603;-69
2022/08/28 14:19:14;;;;;;;;;;;;;;;26.44;45.25;100702.00;4897663;28;100161;-69
2022/08/28 14:22:07;;;;;;;;;;;;;;;26.40;45.22;100707.44;4903176;28;99266;-62
2022/08/28 14:25:00;;;;;;;;;;;;;;;26.43;45.28;100708.69;4895310;28;98352;-61
2022/08/28 14:27:54;;;;;;;;;;;;;;;26.48;45.19;100704.84;4894913;28;98285;-69
2022/08/28 14:30:58;;;;;;;;;;;;;;;26.62;44.93;100710.63;4897990;28;98190;-61
2022/08/28 14:33:51;;;;;;;;;;;;;;;26.87;44.73;100705.47;4913120;28;98206;-61
2022/08/28 14:36:44;;;;;;;;;;;;;;;26.86;44.87;100707.44;4913187;28;98098;-69
2022/08/28 14:39:37;;;;;;;;;;;;;;;26.76;44.99;100696.22;4885444;28;99575;-69
2022/08/28 14:42:30;;;;;;;;;;;;;;;26.61;45.19;100696.00;4894899;28;98139;-61
2022/08/28 14:45:23;;;;;;;;;;;;;;;26.57;45.39;100706.19;4894723;28;98317;-62
2022/08/28 14:48:16;;;;;;;;;;;;;;;26.53;45.34;100699.03;4885328;28;98613;-69
2022/08/28 14:51:08;;;;;;;;;;;;;;;26.47;45.32;100694.97;4892784;28;98383;-61
2022/08/28 14:54:01;;;;;;;;;;;;;;;26.41;45.25;100705.50;4901157;28;98661;-61
2022/08/28 14:56:54;;;;;;;;;;;;;;;26.36;45.37;100691.97;4897221;28;98914;-69
2022/08/28 14:59:48;;;;;;;;;;;;;;;26.32;45.36;100694.69;4902491;28;98228;-69
2022/08/28 15:02:40;;;;;;;;;;;;;;;26.26;45.64;100695.38;4889608;28;99606;-69
2022/08/28 15:05:33;;;;;;;;;;;;;;;26.22;45.57;100691.75;4902650;28;99950;-61
2022/08/28 15:08:36;;;;;;;;;;;;;;;26.14;45.29;100693.59;4901689;28;99098;-61
2022/08/28 15:11:39;;;;;;;;;;;;;;;26.08;45.31;100689.53;4895683;28;98292;-61
2022/08/28 15:14:32;;;;;;;;;;;;;;;26.08;45.62;100693.09;4885846;28;98398;-61
2022/08/28 15:17:25;;;;;;;;;;;;;;;26.06;45.35;100700.16;4902914;28;98228;-69
2022/08/28 15:20:18;;;;;;;;;;;;;;;26.04;45.27;100694.97;4896095;28;97896;-61
2022/08/28 15:23:10;;;;;;;;;;;;;;;25.96;45.33;100698.78;4905072;28;97950;-70
2022/08/28 15:26:03;;;;;;;;;;;;;;;25.88;45.04;100705.34;4890707;28;98491;-69
2022/08/28 15:29:01;;;;;;;;;;;;;;;25.77;45.21;100693.25;4895599;28;98124;-69
2022/08/28 15:31:54;;;;;;;;;;;;;;;25.74;45.48;100696.72;4897319;28;98068;-62
2022/08/28 15:34:47;;;;;;;;;;;;;;;25.70;45.56;100688.38;4890289;28;98055;-69
2022/08/28 15:37:40;;;;;;;;;;;;;;;25.62;45.34;100694.94;4894722;28;97818;-61
2022/08/28 15:43:37;;;;;;;;;;;;;;;25.38;45.80;100693.25;4908285;28;97879;-69
2022/08/28 15:46:47;;;;;;;;;;;;;;;25.29;45.74;100701.75;4885353;28;98894;-70